sensor_id;sensor_type;location;lat;lon;timestamp;P1;durP1;ratioP1;P2;durP2;ratioP2
12163;SDS011;6145;50.192;10.064;2023-04-06T10:57:08;10.23;;;9.10;;
12163;SDS011;6145;50.192;10.064;2023-04-06T10:59:35;10.73;;;8.70;;
12163;SDS011;6145;50.192;10.064;2023-04-06T11:02:02;9.80;;;8.20;;
12163;SDS011;6145;50.192;10.064;2023-04-06T11:04:29;12.43;;;8.73;;
12163;SDS011;6145;50.192;10.064;2023-04-06T11:06:56;11.67;;;8.87;;
12163;SDS011;6145;50.192;10.064;2023-04-06T11:09:23;11.47;;;8.33;;
12163;SDS011;6145;50.192;10.064;2023-04-06T11:11:58;9.20;;;8.30;;
12163;SDS011;6145;50.192;10.064;2023-04-06T11:14:27;8.53;;;7.50;;
12163;SDS011;6145;50.192;10.064;2023-04-06T11:16:54;9.43;;;8.23;;
12163;SDS011;6145;50.192;10.064;2023-04-06T11:19:21;11.03;;;9.17;;
12163;SDS011;6145;50.192;10.064;2023-04-06T11:21:48;10.27;;;8.33;;
12163;SDS011;6145;50.192;10.064;2023-04-06T11:24:16;10.53;;;9.00;;
12163;SDS011;6145;50.192;10.064;2023-04-06T11:26:44;12.70;;;8.53;;
12163;SDS011;6145;50.192;10.064;2023-04-06T11:29:16;9.40;;;8.20;;
12163;SDS011;6145;50.192;10.064;2023-04-06T11:31:51;9.93;;;8.43;;
12163;SDS011;6145;50.192;10.064;2023-04-06T11:34:22;19.70;;;9.80;;
12163;SDS011;6145;50.192;10.064;2023-04-06T11:36:54;10.87;;;8.27;;
12163;SDS011;6145;50.192;10.064;2023-04-06T11:39:23;11.07;;;9.20;;
12163;SDS011;6145;50.192;10.064;2023-04-06T11:41:52;10.20;;;8.07;;
12163;SDS011;6145;50.192;10.064;2023-04-06T11:44:28;9.47;;;8.30;;
12163;SDS011;6145;50.192;10.064;2023-04-06T11:46:59;8.20;;;7.27;;
12163;SDS011;6145;50.192;10.064;2023-04-06T11:49:27;9.60;;;7.77;;
12163;SDS011;6145;50.192;10.064;2023-04-06T11:51:54;10.57;;;8.17;;
12163;SDS011;6145;50.192;10.064;2023-04-06T11:54:31;11.07;;;8.80;;
12163;SDS011;6145;50.192;10.064;2023-04-06T11:56:59;10.33;;;8.97;;
12163;SDS011;6145;50.192;10.064;2023-04-06T11:59:26;11.90;;;8.87;;
12163;SDS011;6145;50.192;10.064;2023-04-06T12:01:53;10.07;;;8.97;;
12163;SDS011;6145;50.192;10.064;2023-04-06T12:04:22;10.17;;;8.77;;
12163;SDS011;6145;50.192;10.064;2023-04-06T12:06:49;9.90;;;8.37;;
12163;SDS011;6145;50.192;10.064;2023-04-06T12:09:16;10.30;;;9.23;;
12163;SDS011;6145;50.192;10.064;2023-04-06T12:11:43;12.27;;;9.30;;
12163;SDS011;6145;50.192;10.064;2023-04-06T12:14:10;9.83;;;8.83;;
12163;SDS011;6145;50.192;10.064;2023-04-06T12:16:38;10.03;;;8.17;;
12163;SDS011;6145;50.192;10.064;2023-04-06T12:19:06;9.50;;;8.30;;
12163;SDS011;6145;50.192;10.064;2023-04-06T12:21:34;13.27;;;8.50;;
12163;SDS011;6145;50.192;10.064;2023-04-06T12:24:02;9.37;;;8.47;;
12163;SDS011;6145;50.192;10.064;2023-04-06T12:26:30;9.10;;;8.13;;
12163;SDS011;6145;50.192;10.064;2023-04-06T12:28:58;9.30;;;8.40;;
12163;SDS011;6145;50.192;10.064;2023-04-06T12:31:30;8.43;;;7.63;;
12163;SDS011;6145;50.192;10.064;2023-04-06T12:33:56;10.40;;;8.53;;
12163;SDS011;6145;50.192;10.064;2023-04-06T12:36:23;12.07;;;8.27;;
12163;SDS011;6145;50.192;10.064;2023-04-06T12:38:53;9.67;;;7.87;;
12163;SDS011;6145;50.192;10.064;2023-04-06T12:41:19;9.47;;;8.57;;
12163;SDS011;6145;50.192;10.064;2023-04-06T12:43:46;11.90;;;9.53;;
12163;SDS011;6145;50.192;10.064;2023-04-06T12:46:14;9.03;;;8.13;;
12163;SDS011;6145;50.192;10.064;2023-04-06T12:48:41;8.70;;;7.87;;
12163;SDS011;6145;50.192;10.064;2023-04-06T12:51:09;13.93;;;8.10;;
12163;SDS011;6145;50.192;10.064;2023-04-06T12:53:35;9.90;;;7.90;;
12163;SDS011;6145;50.192;10.064;2023-04-06T12:56:10;8.57;;;7.23;;
12163;SDS011;6145;50.192;10.064;2023-04-06T12:58:38;8.50;;;7.10;;
12163;SDS011;6145;50.192;10.064;2023-04-06T13:01:06;7.90;;;6.80;;
12163;SDS011;6145;50.192;10.064;2023-04-06T13:03:34;9.87;;;7.40;;
12163;SDS011;6145;50.192;10.064;2023-04-06T13:06:02;8.73;;;7.83;;
12163;SDS011;6145;50.192;10.064;2023-04-06T13:08:29;9.27;;;8.07;;
12163;SDS011;6145;50.192;10.064;2023-04-06T13:10:56;8.00;;;7.20;;
12163;SDS011;6145;50.192;10.064;2023-04-06T13:13:25;8.63;;;7.83;;
12163;SDS011;6145;50.192;10.064;2023-04-06T13:15:54;7.73;;;6.77;;
12163;SDS011;6145;50.192;10.064;2023-04-06T13:18:21;8.63;;;7.17;;
12163;SDS011;6145;50.192;10.064;2023-04-06T13:20:49;9.13;;;7.33;;
12163;SDS011;6145;50.192;10.064;2023-04-06T13:23:16;9.03;;;7.63;;
12163;SDS011;6145;50.192;10.064;2023-04-06T13:25:42;10.93;;;8.17;;
12163;SDS011;6145;50.192;10.064;2023-04-06T13:28:10;10.47;;;7.83;;
12163;SDS011;6145;50.192;10.064;2023-04-06T13:30:38;9.17;;;6.50;;
12163;SDS011;6145;50.192;10.064;2023-04-06T13:33:05;7.90;;;7.10;;
12163;SDS011;6145;50.192;10.064;2023-04-06T13:35:32;7.97;;;7.17;;
12163;SDS011;6145;50.192;10.064;2023-04-06T13:38:00;7.30;;;6.60;;
12163;SDS011;6145;50.192;10.064;2023-04-06T13:40:28;7.00;;;6.30;;
12163;SDS011;6145;50.192;10.064;2023-04-06T13:42:55;8.00;;;7.20;;
12163;SDS011;6145;50.192;10.064;2023-04-06T13:45:21;7.77;;;6.90;;
12163;SDS011;6145;50.192;10.064;2023-04-06T13:47:50;9.33;;;7.23;;
12163;SDS011;6145;50.192;10.064;2023-04-06T13:50:17;8.20;;;7.40;;
12163;SDS011;6145;50.192;10.064;2023-04-06T13:52:44;8.53;;;6.80;;
12163;SDS011;6145;50.192;10.064;2023-04-06T13:55:11;8.13;;;7.30;;
12163;SDS011;6145;50.192;10.064;2023-04-06T13:57:38;8.63;;;7.77;;
12163;SDS011;6145;50.192;10.064;2023-04-06T14:00:06;7.90;;;7.03;;
12163;SDS011;6145;50.192;10.064;2023-04-06T14:02:34;8.47;;;7.50;;
12163;SDS011;6145;50.192;10.064;2023-04-06T14:05:03;7.90;;;7.00;;
12163;SDS011;6145;50.192;10.064;2023-04-06T14:07:31;8.60;;;6.10;;
12163;SDS011;6145;50.192;10.064;2023-04-06T14:09:58;7.67;;;6.70;;
12163;SDS011;6145;50.192;10.064;2023-04-06T14:12:25;7.40;;;6.57;;
12163;SDS011;6145;50.192;10.064;2023-04-06T14:14:53;7.90;;;6.80;;
12163;SDS011;6145;50.192;10.064;2023-04-06T14:17:19;7.27;;;6.50;;
12163;SDS011;6145;50.192;10.064;2023-04-06T14:19:47;7.50;;;6.80;;
12163;SDS011;6145;50.192;10.064;2023-04-06T14:22:16;6.90;;;5.80;;
12163;SDS011;6145;50.192;10.064;2023-04-06T14:24:43;9.00;;;6.83;;
12163;SDS011;6145;50.192;10.064;2023-04-06T14:27:11;6.33;;;5.73;;
12163;SDS011;6145;50.192;10.064;2023-04-06T14:29:39;7.60;;;6.73;;
12163;SDS011;6145;50.192;10.064;2023-04-06T14:32:06;6.63;;;6.00;;
12163;SDS011;6145;50.192;10.064;2023-04-06T14:34:32;5.93;;;5.40;;
12163;SDS011;6145;50.192;10.064;2023-04-06T14:37:03;6.10;;;5.50;;
12163;SDS011;6145;50.192;10.064;2023-04-06T14:39:31;7.00;;;5.83;;
12163;SDS011;6145;50.192;10.064;2023-04-06T14:41:58;8.83;;;6.60;;
12163;SDS011;6145;50.192;10.064;2023-04-06T14:44:28;7.00;;;6.30;;
12163;SDS011;6145;50.192;10.064;2023-04-06T14:46:55;6.97;;;6.27;;
12163;SDS011;6145;50.192;10.064;2023-04-06T14:49:23;9.77;;;8.20;;
12163;SDS011;6145;50.192;10.064;2023-04-06T14:51:51;10.30;;;7.17;;
12163;SDS011;6145;50.192;10.064;2023-04-06T14:54:20;5.53;;;5.13;;
12163;SDS011;6145;50.192;10.064;2023-04-06T14:56:48;7.13;;;6.00;;
12163;SDS011;6145;50.192;10.064;2023-04-06T14:59:23;6.57;;;5.93;;
12163;SDS011;6145;50.192;10.064;2023-04-06T15:01:50;9.00;;;5.03;;
12163;SDS011;6145;50.192;10.064;2023-04-06T15:04:17;7.07;;;6.20;;
12163;SDS011;6145;50.192;10.064;2023-04-06T15:06:45;5.90;;;5.40;;
12163;SDS011;6145;50.192;10.064;2023-04-06T15:09:12;8.67;;;6.00;;
12163;SDS011;6145;50.192;10.064;2023-04-06T15:11:41;6.63;;;5.40;;
12163;SDS011;6145;50.192;10.064;2023-04-06T15:14:10;6.90;;;6.03;;
12163;SDS011;6145;50.192;10.064;2023-04-06T15:16:37;6.03;;;5.10;;
12163;SDS011;6145;50.192;10.064;2023-04-06T15:19:06;6.13;;;5.40;;
12163;SDS011;6145;50.192;10.064;2023-04-06T15:21:41;6.77;;;6.07;;
12163;SDS011;6145;50.192;10.064;2023-04-06T15:24:09;6.37;;;5.77;;
12163;SDS011;6145;50.192;10.064;2023-04-06T15:26:36;7.67;;;6.27;;
12163;SDS011;6145;50.192;10.064;2023-04-06T15:29:04;7.33;;;5.27;;
12163;SDS011;6145;50.192;10.064;2023-04-06T15:31:42;7.73;;;6.53;;
12163;SDS011;6145;50.192;10.064;2023-04-06T15:34:09;6.73;;;6.03;;
12163;SDS011;6145;50.192;10.064;2023-04-06T15:36:39;6.33;;;5.67;;
12163;SDS011;6145;50.192;10.064;2023-04-06T15:39:08;7.37;;;6.33;;
12163;SDS011;6145;50.192;10.064;2023-04-06T15:41:35;6.40;;;5.80;;
12163;SDS011;6145;50.192;10.064;2023-04-06T15:44:03;6.60;;;6.00;;
12163;SDS011;6145;50.192;10.064;2023-04-06T15:46:30;7.30;;;6.43;;
12163;SDS011;6145;50.192;10.064;2023-04-06T15:48:58;7.77;;;6.90;;
12163;SDS011;6145;50.192;10.064;2023-04-06T15:51:25;8.33;;;6.47;;
12163;SDS011;6145;50.192;10.064;2023-04-06T15:53:54;7.17;;;6.43;;
12163;SDS011;6145;50.192;10.064;2023-04-06T15:56:21;7.20;;;6.40;;
12163;SDS011;6145;50.192;10.064;2023-04-06T15:58:48;7.57;;;6.67;;
12163;SDS011;6145;50.192;10.064;2023-04-06T16:01:15;8.40;;;7.30;;
12163;SDS011;6145;50.192;10.064;2023-04-06T16:54:15;7.53;;;6.23;;
12163;SDS011;6145;50.192;10.064;2023-04-06T16:56:42;7.87;;;6.20;;
12163;SDS011;6145;50.192;10.064;2023-04-06T16:59:09;8.10;;;6.43;;
12163;SDS011;6145;50.192;10.064;2023-04-06T17:01:36;7.80;;;5.50;;
12163;SDS011;6145;50.192;10.064;2023-04-06T17:04:05;7.10;;;6.33;;
12163;SDS011;6145;50.192;10.064;2023-04-06T17:06:32;8.30;;;5.97;;
12163;SDS011;6145;50.192;10.064;2023-04-06T17:08:59;8.23;;;6.43;;
12163;SDS011;6145;50.192;10.064;2023-04-06T17:11:28;6.60;;;5.70;;
12163;SDS011;6145;50.192;10.064;2023-04-06T17:13:57;7.80;;;5.97;;
12163;SDS011;6145;50.192;10.064;2023-04-06T17:16:25;7.27;;;5.53;;
12163;SDS011;6145;50.192;10.064;2023-04-06T17:18:53;8.70;;;6.73;;
12163;SDS011;6145;50.192;10.064;2023-04-06T17:21:20;6.33;;;5.70;;
12163;SDS011;6145;50.192;10.064;2023-04-06T17:23:47;7.70;;;5.47;;
12163;SDS011;6145;50.192;10.064;2023-04-06T17:26:15;5.90;;;5.03;;
12163;SDS011;6145;50.192;10.064;2023-04-06T17:28:43;11.47;;;6.70;;
12163;SDS011;6145;50.192;10.064;2023-04-06T17:31:11;8.30;;;6.00;;
12163;SDS011;6145;50.192;10.064;2023-04-06T17:33:39;7.40;;;6.60;;
12163;SDS011;6145;50.192;10.064;2023-04-06T17:36:07;5.97;;;5.33;;
12163;SDS011;6145;50.192;10.064;2023-04-06T17:38:36;8.07;;;6.20;;
12163;SDS011;6145;50.192;10.064;2023-04-06T17:41:07;8.47;;;5.90;;
